createdAt,value
2018-02-11T00:02:03.615Z,18.98
2018-02-11T00:04:32.712Z,22.70
2018-02-11T00:07:01.193Z,23.00
2018-02-11T00:09:29.787Z,18.45
2018-02-11T00:11:58.208Z,26.55
2018-02-11T00:14:28.064Z,22.08
2018-02-11T00:16:56.381Z,22.17
2018-02-11T00:19:24.734Z,21.58
2018-02-11T00:21:53.054Z,20.95
2018-02-11T00:24:21.552Z,20.95
2018-02-11T00:26:49.865Z,19.67
2018-02-11T00:29:18.275Z,21.98
2018-02-11T00:31:46.587Z,19.08
2018-02-11T00:34:15.683Z,22.37
2018-02-11T00:36:50.267Z,19.42
2018-02-11T00:39:19.434Z,17.80
2018-02-11T00:41:47.761Z,18.98
2018-02-11T00:44:16.077Z,19.45
2018-02-11T00:46:44.413Z,18.15
2018-02-11T00:49:12.775Z,16.80
2018-02-11T00:51:41.078Z,18.35
2018-02-11T00:54:10.177Z,16.45
2018-02-11T00:56:39.513Z,17.65
2018-02-11T00:59:07.863Z,21.30
2018-02-11T01:01:36.923Z,21.02
2018-02-11T01:04:06.245Z,19.27
2018-02-11T01:06:35.438Z,16.75
2018-02-11T01:09:04.582Z,18.02
2018-02-11T01:11:32.878Z,19.87
2018-02-11T01:14:01.277Z,16.15
2018-02-11T01:19:05.050Z,16.65
2018-02-11T01:21:33.389Z,22.75
2018-02-11T01:24:02.546Z,18.10
2018-02-11T01:26:30.873Z,21.48
2018-02-11T01:28:59.187Z,18.10
2018-02-11T01:31:27.520Z,20.40
2018-02-11T01:33:56.697Z,18.40
2018-02-11T01:36:25.789Z,16.73
2018-02-11T01:38:54.143Z,22.20
2018-02-11T01:41:22.462Z,17.60
2018-02-11T01:43:51.724Z,19.92
2018-02-11T01:46:20.038Z,15.65
2018-02-11T01:48:49.130Z,18.48
2018-02-11T01:51:18.428Z,15.85
2018-02-11T01:53:46.746Z,18.52
2018-02-11T01:56:15.106Z,18.70
2018-02-11T01:58:43.404Z,14.80
2018-02-11T02:01:11.746Z,14.77
2018-02-11T02:03:40.120Z,18.73
2018-02-11T02:06:08.474Z,15.73
2018-02-11T02:08:38.184Z,15.20
2018-02-11T02:11:07.384Z,15.25
2018-02-11T02:13:36.457Z,16.65
2018-02-11T02:16:04.828Z,17.20
2018-02-11T02:18:33.273Z,16.50
2018-02-11T02:21:01.570Z,19.08
2018-02-11T02:23:29.894Z,16.15
2018-02-11T02:25:58.962Z,17.27
2018-02-11T02:28:27.412Z,22.27
2018-02-11T02:30:55.852Z,15.35
2018-02-11T02:33:24.163Z,15.80
2018-02-11T02:35:52.488Z,13.20
2018-02-11T02:38:20.890Z,12.50
2018-02-11T02:40:49.226Z,14.07
2018-02-11T02:43:17.523Z,15.85
2018-02-11T02:45:46.646Z,15.65
2018-02-11T02:48:14.975Z,14.30
2018-02-11T02:50:43.370Z,15.98
2018-02-11T02:53:12.443Z,14.63
2018-02-11T02:55:40.743Z,14.10
2018-02-11T02:58:09.889Z,14.05
2018-02-11T03:00:38.182Z,16.02
2018-02-11T03:03:06.516Z,17.08
2018-02-11T03:05:34.857Z,12.88
2018-02-11T03:08:03.954Z,14.32
2018-02-11T03:10:33.029Z,15.05
2018-02-11T03:13:02.389Z,12.43
2018-02-11T03:15:30.736Z,13.55
2018-02-11T03:17:59.006Z,21.05
2018-02-11T03:20:28.121Z,12.48
2018-02-11T03:22:56.538Z,12.05
2018-02-11T03:25:25.232Z,10.90
2018-02-11T03:27:53.713Z,15.52
2018-02-11T03:30:22.042Z,12.85
2018-02-11T03:32:50.385Z,12.25
2018-02-11T03:35:18.703Z,11.68
2018-02-11T03:37:47.064Z,11.02
2018-02-11T03:40:15.474Z,14.30
2018-02-11T03:42:43.782Z,13.55
2018-02-11T03:45:14.464Z,12.68
2018-02-11T03:47:42.785Z,12.25
2018-02-11T03:50:11.851Z,13.60
2018-02-11T03:52:40.251Z,16.23
2018-02-11T03:55:08.563Z,15.23
2018-02-11T03:57:37.666Z,12.20
2018-02-11T04:00:05.979Z,13.95
2018-02-11T04:02:34.305Z,13.00
2018-02-11T04:05:03.394Z,13.38
2018-02-11T04:07:32.471Z,11.73
2018-02-11T04:10:00.968Z,12.52
2018-02-11T04:12:30.061Z,11.88
2018-02-11T04:14:58.407Z,10.55
2018-02-11T04:17:26.771Z,11.57
2018-02-11T04:19:55.256Z,13.50
2018-02-11T04:22:23.566Z,12.98
2018-02-11T04:24:52.709Z,13.20
2018-02-11T04:27:21.118Z,10.95
2018-02-11T04:29:50.218Z,14.90
2018-02-11T04:32:18.553Z,11.68
2018-02-11T04:34:46.902Z,12.30
2018-02-11T04:37:15.237Z,10.95
2018-02-11T04:39:43.525Z,12.80
2018-02-11T04:42:11.834Z,10.27
2018-02-11T04:44:40.168Z,10.25
2018-02-11T04:47:08.465Z,7.80
2018-02-11T04:49:37.562Z,9.20
2018-02-11T04:52:06.628Z,9.55
2018-02-11T04:54:34.948Z,8.38
2018-02-11T04:57:03.251Z,7.22
2018-02-11T04:59:31.583Z,7.80
2018-02-11T05:02:00.738Z,8.77
2018-02-11T05:04:29.125Z,9.98
2018-02-11T05:06:57.570Z,7.90
2018-02-11T05:09:26.468Z,9.93
2018-02-11T05:11:54.927Z,9.10
2018-02-11T05:14:23.232Z,8.98
2018-02-11T05:16:51.655Z,9.48
2018-02-11T05:19:20.751Z,7.68
2018-02-11T05:21:49.811Z,7.07
2018-02-11T05:24:18.123Z,6.32
2018-02-11T05:26:47.282Z,7.97
2018-02-11T05:29:15.662Z,8.30
2018-02-11T05:31:43.995Z,7.32
2018-02-11T05:34:12.315Z,7.40
2018-02-11T05:36:40.600Z,8.98
2018-02-11T05:39:08.896Z,6.78
2018-02-11T05:41:38.639Z,7.40
2018-02-11T05:44:06.985Z,7.28
2018-02-11T05:46:35.329Z,5.53
2018-02-11T05:49:03.728Z,6.15
2018-02-11T05:51:32.826Z,5.47
2018-02-11T05:54:01.891Z,7.25
2018-02-11T05:56:30.206Z,6.82
2018-02-11T05:58:59.340Z,7.53
2018-02-11T06:01:27.645Z,5.18
2018-02-11T06:03:55.959Z,5.32
2018-02-11T06:06:25.182Z,5.32
2018-02-11T06:08:54.238Z,7.18
2018-02-11T06:11:23.306Z,4.80
2018-02-11T06:13:51.594Z,6.55
2018-02-11T06:16:19.913Z,5.05
2018-02-11T06:18:48.330Z,8.20
2018-02-11T06:21:16.668Z,5.72
2018-02-11T06:23:44.991Z,5.18
2018-02-11T06:26:13.269Z,4.25
2018-02-11T06:28:41.866Z,4.50
2018-02-11T06:31:10.936Z,4.93
2018-02-11T06:33:39.232Z,8.60
2018-02-11T06:36:07.652Z,5.37
2018-02-11T06:38:36.006Z,6.28
2018-02-11T06:41:04.454Z,6.10
2018-02-11T06:43:33.679Z,6.95
2018-02-11T06:46:02.756Z,6.85
2018-02-11T06:48:31.049Z,7.05
2018-02-11T06:51:00.223Z,4.78
2018-02-11T06:53:28.514Z,4.53
2018-02-11T06:55:57.615Z,5.28
2018-02-11T06:58:26.955Z,5.10
2018-02-11T07:00:55.247Z,6.45
2018-02-11T07:03:23.563Z,6.37
2018-02-11T07:05:52.628Z,4.15
2018-02-11T07:08:20.951Z,5.12
2018-02-11T07:10:49.317Z,5.30
2018-02-11T07:13:18.212Z,7.60
2018-02-11T07:15:46.507Z,6.03
2018-02-11T07:18:14.848Z,5.62
2018-02-11T07:20:43.919Z,5.37
2018-02-11T07:23:12.223Z,4.68
2018-02-11T07:25:41.422Z,5.30
2018-02-11T07:28:09.728Z,7.28
2018-02-11T07:30:38.062Z,4.93
2018-02-11T07:33:07.135Z,4.72
2018-02-11T07:35:35.536Z,4.07
2018-02-11T07:38:04.625Z,7.00
2018-02-11T07:40:33.684Z,4.93
2018-02-11T07:43:03.548Z,5.12
2018-02-11T07:45:31.878Z,4.20
2018-02-11T07:48:00.371Z,4.30
2018-02-11T07:50:29.442Z,5.62
2018-02-11T07:52:57.828Z,6.03
2018-02-11T07:55:26.198Z,5.90
2018-02-11T07:57:54.536Z,4.30
2018-02-11T08:00:22.858Z,4.87
2018-02-11T08:02:51.192Z,5.20
2018-02-11T08:05:19.543Z,4.47
2018-02-11T08:07:48.612Z,5.03
2018-02-11T08:10:17.724Z,3.37
2018-02-11T08:12:46.785Z,3.80
2018-02-11T08:15:15.282Z,5.20
2018-02-11T08:17:44.401Z,3.47
2018-02-11T08:20:13.475Z,3.45
2018-02-11T08:22:42.030Z,4.05
2018-02-11T08:25:10.400Z,3.65
2018-02-11T08:27:38.829Z,5.00
2018-02-11T08:30:07.979Z,9.02
2018-02-11T08:32:36.541Z,4.70
2018-02-11T08:35:04.992Z,6.43
2018-02-11T08:37:33.401Z,4.65
2018-02-11T08:40:01.776Z,6.18
2018-02-11T08:42:30.268Z,3.95
2018-02-11T08:44:59.400Z,4.90
2018-02-11T08:47:27.707Z,3.08
2018-02-11T08:49:56.804Z,2.85
2018-02-11T08:52:25.148Z,5.32
2018-02-11T08:54:53.456Z,2.70
2018-02-11T08:57:21.962Z,2.30
2018-02-11T08:59:50.304Z,2.45
2018-02-11T09:02:19.385Z,2.60
2018-02-11T09:04:48.501Z,4.03
2018-02-11T09:07:16.895Z,5.80
2018-02-11T09:09:45.215Z,3.20
2018-02-11T09:12:13.649Z,3.53
2018-02-11T09:14:41.977Z,4.43
2018-02-11T09:17:10.305Z,4.85
2018-02-11T09:19:38.604Z,8.00
2018-02-11T09:22:06.953Z,4.93
2018-02-11T09:24:35.292Z,6.25
2018-02-11T09:27:03.719Z,8.85
2018-02-11T09:29:32.267Z,3.72
2018-02-11T09:32:01.350Z,5.35
2018-02-11T09:34:30.459Z,2.33
2018-02-11T09:36:58.771Z,3.85
2018-02-11T09:39:27.132Z,3.10
2018-02-11T09:41:55.698Z,2.90
2018-02-11T09:44:24.802Z,3.15
2018-02-11T09:46:53.160Z,3.05
2018-02-11T09:49:22.227Z,2.15
2018-02-11T09:51:50.574Z,3.80
2018-02-11T09:54:18.878Z,7.37
2018-02-11T09:56:47.277Z,4.95
2018-02-11T09:59:15.739Z,2.78
2018-02-11T10:01:44.215Z,5.60
2018-02-11T10:04:12.700Z,2.90
2018-02-11T10:06:42.067Z,5.05
2018-02-11T10:09:10.394Z,3.17
2018-02-11T10:11:39.516Z,3.12
2018-02-11T10:14:07.844Z,2.45
2018-02-11T10:16:37.124Z,2.70
2018-02-11T10:19:05.456Z,5.57
2018-02-11T10:21:34.030Z,2.33
2018-02-11T10:24:03.124Z,1.92
2018-02-11T10:29:06.787Z,2.47
2018-02-11T10:31:35.097Z,2.22
2018-02-11T10:34:04.207Z,1.90
2018-02-11T10:36:33.399Z,1.70
2018-02-11T10:39:01.875Z,3.22
2018-02-11T10:41:31.013Z,3.78
2018-02-11T10:43:59.319Z,3.37
2018-02-11T10:46:27.664Z,2.47
2018-02-11T10:48:56.633Z,2.75
2018-02-11T10:51:25.821Z,2.22
2018-02-11T10:53:55.014Z,4.53
2018-02-11T10:56:24.255Z,2.65
2018-02-11T10:58:52.589Z,2.12
2018-02-11T11:01:21.888Z,4.22
2018-02-11T11:03:50.224Z,2.10
2018-02-11T11:06:18.687Z,2.75
2018-02-11T11:08:47.057Z,2.90
2018-02-11T11:11:15.385Z,2.40
2018-02-11T11:13:43.815Z,3.62
2018-02-11T11:16:12.316Z,6.55
2018-02-11T11:18:41.325Z,3.05
2018-02-11T11:21:09.777Z,2.95
2018-02-11T11:23:38.286Z,4.45
2018-02-11T11:26:06.623Z,2.08
2018-02-11T11:28:34.960Z,3.15
2018-02-11T11:31:04.197Z,2.55
2018-02-11T11:33:32.690Z,2.67
2018-02-11T11:36:01.021Z,4.47
2018-02-11T11:38:29.428Z,2.97
2018-02-11T11:40:58.458Z,2.42
2018-02-11T11:43:27.009Z,2.00
2018-02-11T11:45:55.314Z,3.00
2018-02-11T11:48:25.231Z,3.97
2018-02-11T11:50:53.666Z,3.25
2018-02-11T11:53:22.144Z,2.58
2018-02-11T11:55:50.455Z,2.80
2018-02-11T11:58:18.825Z,4.32
2018-02-11T12:00:47.380Z,4.50
2018-02-11T12:03:15.684Z,2.67
2018-02-11T12:05:44.029Z,3.10
2018-02-11T12:08:12.354Z,3.65
2018-02-11T12:10:41.446Z,5.75
2018-02-11T12:13:09.796Z,4.53
2018-02-11T12:15:38.910Z,4.22
2018-02-11T12:18:07.249Z,3.55
2018-02-11T12:20:35.650Z,4.60
2018-02-11T12:23:04.495Z,3.72
2018-02-11T12:25:32.854Z,3.15
2018-02-11T12:28:02.176Z,3.60
2018-02-11T12:30:30.506Z,6.30
2018-02-11T12:32:58.842Z,4.65
2018-02-11T12:35:28.035Z,4.18
2018-02-11T12:37:56.532Z,4.00
2018-02-11T12:40:24.838Z,4.00
2018-02-11T12:42:53.260Z,5.00
2018-02-11T12:45:21.710Z,3.40
2018-02-11T12:47:50.264Z,2.87
2018-02-11T12:50:18.580Z,3.80
2018-02-11T12:52:47.773Z,2.45
2018-02-11T12:55:16.897Z,3.00
2018-02-11T12:57:45.214Z,2.42
2018-02-11T13:00:13.548Z,1.70
2018-02-11T13:02:42.057Z,2.42
2018-02-11T13:05:10.471Z,2.75
2018-02-11T13:07:39.564Z,1.95
2018-02-11T13:10:08.682Z,2.90
2018-02-11T13:12:37.103Z,2.60
2018-02-11T13:15:05.415Z,2.37
2018-02-11T13:17:34.550Z,1.95
2018-02-11T13:20:02.970Z,1.55
2018-02-11T13:22:31.373Z,2.62
2018-02-11T13:25:00.460Z,1.85
2018-02-11T13:27:29.631Z,1.77
2018-02-11T13:29:57.979Z,1.50
2018-02-11T13:32:26.298Z,1.58
2018-02-11T13:34:54.658Z,2.12
2018-02-11T13:37:22.973Z,1.52
2018-02-11T13:39:51.341Z,1.73
2018-02-11T13:42:20.800Z,1.55
2018-02-11T13:44:49.131Z,2.90
2018-02-11T13:47:18.216Z,1.83
2018-02-11T13:49:47.455Z,2.03
2018-02-11T13:52:15.809Z,2.15
2018-02-11T13:54:45.386Z,2.25
2018-02-11T13:57:13.730Z,1.98
2018-02-11T13:59:42.861Z,1.98
2018-02-11T14:02:12.519Z,2.10
2018-02-11T14:04:40.903Z,2.30
2018-02-11T14:07:09.218Z,2.25
2018-02-11T14:09:38.789Z,1.60
2018-02-11T14:12:07.087Z,2.20
2018-02-11T14:14:35.428Z,2.12
2018-02-11T14:17:03.920Z,2.17
2018-02-11T14:19:36.418Z,1.87
2018-02-11T14:22:05.078Z,2.25
2018-02-11T14:24:33.639Z,3.92
2018-02-11T14:27:01.946Z,2.55
2018-02-11T14:29:30.299Z,2.17
2018-02-11T14:31:58.701Z,2.78
2018-02-11T14:34:27.025Z,2.90
2018-02-11T14:36:55.450Z,3.35
2018-02-11T14:39:23.970Z,2.42
2018-02-11T14:41:52.696Z,3.15
2018-02-11T14:44:21.089Z,2.03
2018-02-11T14:46:49.417Z,2.15
2018-02-11T14:49:18.494Z,2.95
2018-02-11T14:51:47.752Z,4.60
2018-02-11T14:54:16.131Z,3.87
2018-02-11T14:56:45.175Z,6.07
2018-02-11T14:59:14.275Z,1.80
2018-02-11T15:01:43.454Z,3.12
2018-02-11T15:04:12.101Z,4.90
2018-02-11T15:06:40.536Z,2.40
2018-02-11T15:09:08.922Z,5.90
2018-02-11T15:11:38.014Z,3.05
2018-02-11T15:14:06.403Z,3.33
2018-02-11T15:16:34.851Z,5.00
2018-02-11T15:19:03.943Z,7.85
2018-02-11T15:21:33.105Z,2.25
2018-02-11T15:24:01.434Z,2.10
2018-02-11T15:26:29.761Z,5.40
2018-02-11T15:28:58.599Z,2.20
2018-02-11T15:31:26.923Z,1.92
2018-02-11T15:33:55.244Z,4.40
2018-02-11T15:36:24.653Z,2.40
2018-02-11T15:38:57.134Z,2.62
2018-02-11T15:41:25.492Z,1.62
2018-02-11T15:43:54.823Z,1.60
2018-02-11T15:46:23.219Z,1.83
2018-02-11T15:48:51.569Z,3.95
2018-02-11T15:51:20.072Z,1.42
2018-02-11T15:53:48.536Z,1.73
2018-02-11T15:56:17.080Z,2.15
2018-02-11T15:58:46.503Z,3.28
2018-02-11T16:01:14.881Z,7.55
2018-02-11T16:03:43.198Z,1.25
2018-02-11T16:06:11.514Z,1.40
2018-02-11T16:08:40.651Z,1.30
2018-02-11T16:11:09.157Z,2.67
2018-02-11T16:13:37.498Z,1.62
2018-02-11T16:16:05.844Z,1.45
2018-02-11T16:18:34.996Z,1.58
2018-02-11T16:21:03.430Z,1.75
2018-02-11T16:23:31.962Z,1.33
2018-02-11T16:26:00.720Z,1.12
2018-02-11T16:28:29.195Z,3.08
2018-02-11T16:30:57.679Z,2.35
2018-02-11T16:33:26.025Z,3.72
2018-02-11T16:35:55.151Z,2.08
2018-02-11T16:38:23.502Z,2.60
2018-02-11T16:40:52.090Z,1.48
2018-02-11T16:43:20.716Z,2.53
2018-02-11T16:45:49.113Z,2.08
2018-02-11T16:48:17.551Z,1.35
2018-02-11T16:50:45.923Z,1.85
2018-02-11T16:53:14.328Z,1.40
2018-02-11T16:55:43.079Z,2.25
2018-02-11T16:58:11.573Z,3.60
2018-02-11T17:00:39.908Z,2.65
2018-02-11T17:03:09.056Z,2.15
2018-02-11T17:05:37.374Z,2.35
2018-02-11T17:08:06.499Z,3.22
2018-02-11T17:10:34.843Z,2.80
2018-02-11T17:13:04.182Z,2.05
2018-02-11T17:15:33.370Z,7.37
2018-02-11T17:18:01.701Z,4.05
2018-02-11T17:20:30.167Z,4.62
2018-02-11T17:23:00.093Z,6.47
2018-02-11T17:25:29.406Z,3.50
2018-02-11T17:27:57.971Z,3.00
2018-02-11T17:30:26.469Z,2.87
2018-02-11T17:32:55.846Z,2.47
2018-02-11T17:35:24.172Z,2.20
2018-02-11T17:37:52.506Z,2.92
2018-02-11T17:40:20.875Z,2.12
2018-02-11T17:42:49.250Z,3.62
2018-02-11T17:45:17.616Z,3.28
2018-02-11T17:47:46.147Z,3.87
2018-02-11T17:50:14.631Z,2.37
2018-02-11T17:52:43.724Z,4.12
2018-02-11T17:55:12.151Z,2.00
2018-02-11T17:57:40.489Z,3.25
2018-02-11T18:00:09.014Z,4.12
2018-02-11T18:02:37.505Z,2.97
2018-02-11T18:05:05.825Z,4.50
2018-02-11T18:07:34.370Z,10.43
2018-02-11T18:10:02.727Z,3.45
2018-02-11T18:12:31.139Z,2.70
2018-02-11T18:15:00.259Z,6.18
2018-02-11T18:17:28.722Z,3.00
2018-02-11T18:19:57.849Z,2.60
2018-02-11T18:22:26.233Z,2.47
2018-02-11T18:24:54.692Z,5.72
2018-02-11T18:27:23.072Z,4.87
2018-02-11T18:29:51.465Z,3.75
2018-02-11T18:32:19.981Z,3.42
2018-02-11T18:34:48.586Z,3.80
2018-02-11T18:37:16.978Z,4.12
2018-02-11T18:39:46.161Z,2.50
2018-02-11T18:42:15.342Z,4.40
2018-02-11T18:44:43.772Z,4.57
2018-02-11T18:47:12.070Z,1.80
2018-02-11T18:49:41.434Z,2.75
2018-02-11T18:52:09.900Z,2.75
2018-02-11T18:54:38.480Z,2.25
2018-02-11T18:57:07.594Z,4.28
2018-02-11T18:59:35.948Z,5.60
2018-02-11T19:02:05.259Z,5.25
2018-02-11T19:04:34.376Z,13.13
2018-02-11T19:07:02.760Z,6.10
2018-02-11T19:09:31.084Z,6.90
2018-02-11T19:11:59.430Z,7.18
2018-02-11T19:14:27.960Z,9.55
2018-02-11T19:16:56.299Z,5.37
2018-02-11T19:19:24.687Z,6.03
2018-02-11T19:21:53.092Z,5.25
2018-02-11T19:24:21.505Z,6.05
2018-02-11T19:26:49.915Z,4.62
2018-02-11T19:29:22.288Z,3.40
2018-02-11T19:31:50.747Z,3.40
2018-02-11T19:34:19.270Z,5.68
2018-02-11T19:36:47.618Z,3.70
2018-02-11T19:39:16.266Z,8.23
2018-02-11T19:41:44.771Z,6.15
2018-02-11T19:44:14.580Z,5.15
2018-02-11T19:46:42.956Z,6.82
2018-02-11T19:49:11.423Z,8.98
2018-02-11T19:51:40.008Z,3.47
2018-02-11T19:54:08.312Z,4.32
2018-02-11T19:56:36.681Z,5.00
2018-02-11T19:59:04.989Z,3.85
2018-02-11T20:01:33.344Z,5.82
2018-02-11T20:04:01.714Z,6.15
2018-02-11T20:06:30.061Z,5.80
2018-02-11T20:08:58.665Z,6.37
2018-02-11T20:11:27.136Z,5.65
2018-02-11T20:13:55.459Z,10.07
2018-02-11T20:16:24.750Z,4.57
2018-02-11T20:18:53.102Z,4.75
2018-02-11T20:21:21.568Z,5.07
2018-02-11T20:23:49.895Z,8.70
2018-02-11T20:26:18.265Z,5.90
2018-02-11T20:28:46.646Z,4.28
2018-02-11T20:31:15.985Z,5.05
2018-02-11T20:33:45.080Z,6.70
2018-02-11T20:36:13.615Z,5.45
2018-02-11T20:38:42.837Z,4.37
2018-02-11T20:41:11.869Z,7.18
2018-02-11T20:43:40.298Z,4.78
2018-02-11T20:46:08.638Z,2.95
2018-02-11T20:48:37.020Z,11.45
2018-02-11T20:51:05.522Z,9.55
2018-02-11T20:53:34.812Z,5.57
2018-02-11T20:56:03.119Z,5.28
2018-02-11T20:58:31.789Z,4.70
2018-02-11T21:01:00.249Z,4.10
2018-02-11T21:03:29.724Z,4.53
2018-02-11T21:05:58.159Z,4.05
2018-02-11T21:08:26.506Z,6.57
2018-02-11T21:10:55.056Z,4.70
2018-02-11T21:13:24.387Z,6.22
2018-02-11T21:15:54.145Z,5.32
2018-02-11T21:18:23.180Z,4.30
2018-02-11T21:20:51.542Z,4.90
2018-02-11T21:23:21.213Z,6.15
2018-02-11T21:25:49.591Z,10.88
2018-02-11T21:28:18.686Z,8.90
2018-02-11T21:30:47.990Z,4.10
2018-02-11T21:33:16.316Z,3.65
2018-02-11T21:35:46.370Z,3.92
2018-02-11T21:38:14.851Z,4.75
2018-02-11T21:40:44.762Z,10.02
2018-02-11T21:43:13.232Z,4.82
2018-02-11T21:45:44.838Z,7.40
2018-02-11T21:48:13.269Z,6.60
2018-02-11T21:50:44.415Z,9.90
2018-02-11T21:53:12.726Z,5.68
2018-02-11T21:55:41.117Z,4.28
2018-02-11T21:58:09.461Z,6.62
2018-02-11T22:00:37.837Z,4.65
2018-02-11T22:03:06.278Z,10.77
2018-02-11T22:05:35.378Z,9.15
2018-02-11T22:08:04.477Z,13.40
2018-02-11T22:10:33.578Z,7.80
2018-02-11T22:13:02.148Z,8.55
2018-02-11T22:15:30.529Z,4.45
2018-02-11T22:17:59.783Z,6.47
2018-02-11T22:20:29.694Z,7.30
2018-02-11T22:22:58.189Z,6.37
2018-02-11T22:25:26.766Z,4.75
2018-02-11T22:27:55.081Z,5.37
2018-02-11T22:30:24.161Z,4.97
2018-02-11T22:32:52.514Z,6.65
2018-02-11T22:35:21.050Z,5.53
2018-02-11T22:37:49.368Z,5.87
2018-02-11T22:40:17.701Z,3.92
2018-02-11T22:42:45.994Z,4.40
2018-02-11T22:45:14.346Z,4.78
2018-02-11T22:47:42.675Z,10.68
2018-02-11T22:50:11.077Z,5.90
2018-02-11T22:52:39.453Z,8.60
2018-02-11T22:55:09.960Z,6.25
2018-02-11T22:57:38.269Z,4.15
2018-02-11T23:00:07.399Z,5.00
2018-02-11T23:02:36.084Z,5.22
2018-02-11T23:05:05.156Z,3.78
2018-02-11T23:07:34.147Z,3.20
2018-02-11T23:10:03.564Z,4.50
2018-02-11T23:12:31.883Z,6.22
2018-02-11T23:15:02.409Z,4.97
2018-02-11T23:17:32.718Z,3.58
2018-02-11T23:20:01.170Z,8.73
2018-02-11T23:22:30.679Z,5.78
2018-02-11T23:24:59.522Z,4.95
2018-02-11T23:27:27.918Z,4.87
2018-02-11T23:29:57.350Z,10.98
2018-02-11T23:32:25.639Z,12.35
2018-02-11T23:34:54.230Z,8.73
2018-02-11T23:37:22.952Z,7.87
2018-02-11T23:39:55.677Z,5.50
2018-02-11T23:42:23.990Z,5.28
2018-02-11T23:44:52.306Z,13.45
2018-02-11T23:47:20.746Z,8.25
2018-02-11T23:49:49.076Z,6.37
2018-02-11T23:52:17.521Z,8.13
2018-02-11T23:54:45.872Z,7.82
2018-02-11T23:57:14.179Z,11.00
2018-02-11T23:59:43.261Z,6.07
